createdAt,value
2019-04-16T00:00:42.464Z,4.25
2019-04-16T00:03:53.627Z,5.55
2019-04-16T00:07:21.608Z,6.67
2019-04-16T00:10:55.657Z,4.30
2019-04-16T00:14:18.573Z,5.53
2019-04-16T00:17:24.387Z,4.60
2019-04-16T00:20:31.100Z,4.28
2019-04-16T00:23:58.769Z,6.03
2019-04-16T00:27:04.791Z,4.85
2019-04-16T00:30:10.976Z,3.90
2019-04-16T00:33:16.821Z,5.15
2019-04-16T00:36:22.573Z,5.35
2019-04-16T00:39:28.397Z,4.58
2019-04-16T00:42:34.289Z,5.35
2019-04-16T00:45:40.077Z,4.58
2019-04-16T00:48:45.921Z,5.80
2019-04-16T00:51:51.646Z,4.05
2019-04-16T00:54:57.644Z,4.78
2019-04-16T00:58:03.358Z,5.10
2019-04-16T01:01:11.005Z,7.22
2019-04-16T01:04:16.913Z,3.70
2019-04-16T01:07:22.673Z,4.40
2019-04-16T01:10:28.582Z,7.10
2019-04-16T01:13:34.297Z,4.83
2019-04-16T01:16:40.089Z,4.42
2019-04-16T01:19:45.929Z,5.40
2019-04-16T01:22:51.661Z,5.10
2019-04-16T01:25:57.694Z,4.50
2019-04-16T01:29:12.183Z,5.05
2019-04-16T01:32:48.133Z,5.87
2019-04-16T01:36:01.815Z,5.72
2019-04-16T01:39:17.410Z,6.85
2019-04-16T01:42:16.273Z,5.25
2019-04-16T01:45:22.129Z,6.80
2019-04-16T01:48:27.987Z,4.17
2019-04-16T01:51:37.668Z,5.08
2019-04-16T01:54:42.357Z,5.78
2019-04-16T01:57:48.019Z,6.90
2019-04-16T02:00:53.772Z,5.47
2019-04-16T02:03:59.505Z,4.85
2019-04-16T02:07:05.408Z,5.00
2019-04-16T02:10:11.642Z,4.65
2019-04-16T02:13:17.398Z,5.83
2019-04-16T02:16:25.202Z,4.95
2019-04-16T02:19:32.927Z,4.53
2019-04-16T02:22:37.953Z,5.33
2019-04-16T02:25:44.016Z,5.12
2019-04-16T02:28:49.875Z,4.70
2019-04-16T02:31:55.788Z,4.35
2019-04-16T02:35:01.482Z,5.87
2019-04-16T02:38:12.280Z,4.55
2019-04-16T02:41:15.829Z,6.58
2019-04-16T02:44:21.502Z,6.25
2019-04-16T02:47:27.167Z,5.22
2019-04-16T02:50:45.056Z,5.03
2019-04-16T02:54:06.840Z,6.45
2019-04-16T02:57:26.017Z,5.47
2019-04-16T03:01:00.966Z,4.70
2019-04-16T03:04:11.896Z,6.28
2019-04-16T03:07:17.604Z,9.25
2019-04-16T03:10:23.191Z,5.87
2019-04-16T03:13:28.867Z,5.90
2019-04-16T03:16:56.304Z,5.03
2019-04-16T03:20:03.714Z,5.83
2019-04-16T03:23:09.412Z,6.62
2019-04-16T03:26:17.492Z,4.95
2019-04-16T03:29:22.301Z,8.30
2019-04-16T03:32:33.666Z,5.83
2019-04-16T03:35:35.467Z,7.47
2019-04-16T03:38:42.174Z,5.55
2019-04-16T03:41:47.894Z,7.12
2019-04-16T03:44:53.575Z,5.05
2019-04-16T03:48:01.040Z,7.62
2019-04-16T03:51:06.726Z,6.05
2019-04-16T03:54:12.463Z,6.53
2019-04-16T03:57:18.103Z,6.05
2019-04-16T04:00:24.863Z,5.25
2019-04-16T04:03:30.663Z,5.47
2019-04-16T04:06:36.626Z,5.72
2019-04-16T04:09:43.621Z,9.08
2019-04-16T04:12:49.321Z,6.22
2019-04-16T04:15:55.365Z,41.77
2019-04-16T04:19:02.324Z,22.48
2019-04-16T04:22:09.186Z,22.48
2019-04-16T04:25:14.874Z,22.30
2019-04-16T04:28:20.661Z,8.28
2019-04-16T04:31:32.120Z,10.20
2019-04-16T04:34:34.682Z,41.80
2019-04-16T04:37:41.711Z,12.35
2019-04-16T04:40:50.507Z,7.87
2019-04-16T04:43:54.811Z,6.92
2019-04-16T04:47:02.457Z,9.90
2019-04-16T04:50:08.673Z,7.05
2019-04-16T04:53:15.576Z,7.35
2019-04-16T04:56:21.627Z,8.75
2019-04-16T04:59:27.457Z,7.78
2019-04-16T05:02:34.108Z,7.87
2019-04-16T05:05:44.368Z,6.40
2019-04-16T05:08:50.035Z,7.42
2019-04-16T05:11:57.491Z,6.15
2019-04-16T05:15:04.042Z,10.03
2019-04-16T05:18:10.801Z,4.85
2019-04-16T05:21:19.053Z,7.67
2019-04-16T05:24:28.908Z,3.90
2019-04-16T05:27:33.152Z,7.50
2019-04-16T05:30:38.826Z,4.97
2019-04-16T05:33:44.480Z,5.50
2019-04-16T05:36:51.231Z,4.95
2019-04-16T05:39:59.469Z,3.50
2019-04-16T05:43:05.119Z,3.90
2019-04-16T05:46:10.775Z,3.80
2019-04-16T05:49:16.525Z,4.97
2019-04-16T05:52:22.173Z,4.40
2019-04-16T05:55:36.612Z,5.97
2019-04-16T05:58:43.291Z,4.83
2019-04-16T06:02:15.091Z,6.08
2019-04-16T06:05:20.555Z,10.40
2019-04-16T06:08:26.391Z,11.40
2019-04-16T06:11:35.757Z,7.15
2019-04-16T06:14:46.417Z,8.80
2019-04-16T06:18:10.713Z,4.85
2019-04-16T06:21:32.863Z,5.55
2019-04-16T06:25:13.342Z,4.17
2019-04-16T06:28:39.372Z,7.55
2019-04-16T06:32:00.041Z,3.85
2019-04-16T06:35:24.051Z,5.37
2019-04-16T06:39:00.746Z,3.83
2019-04-16T06:42:26.599Z,4.80
2019-04-16T06:45:40.711Z,5.95
2019-04-16T06:49:17.075Z,4.28
2019-04-16T06:52:40.500Z,5.65
2019-04-16T06:56:02.049Z,4.92
2019-04-16T06:59:26.394Z,4.53
2019-04-16T07:03:01.402Z,3.65
2019-04-16T07:06:08.791Z,4.37
2019-04-16T07:09:40.506Z,4.85
2019-04-16T07:12:38.484Z,4.87
2019-04-16T07:15:42.599Z,5.50
2019-04-16T07:18:48.441Z,4.62
2019-04-16T07:21:55.291Z,4.62
2019-04-16T07:25:04.245Z,7.65
2019-04-16T07:28:25.835Z,16.80
2019-04-16T07:31:40.464Z,15.85
2019-04-16T07:34:51.484Z,9.23
2019-04-16T07:38:28.119Z,6.17
2019-04-16T07:41:44.729Z,9.83
2019-04-16T07:45:12.567Z,7.10
2019-04-16T07:48:42.532Z,6.78
2019-04-16T07:52:16.068Z,5.83
2019-04-16T07:55:41.788Z,6.65
2019-04-16T07:58:49.255Z,7.85
2019-04-16T08:01:54.900Z,8.40
2019-04-16T08:05:00.703Z,4.78
2019-04-16T08:08:06.660Z,5.50
2019-04-16T08:11:12.409Z,5.62
2019-04-16T08:14:19.176Z,4.17
2019-04-16T08:17:24.798Z,6.40
2019-04-16T08:20:30.532Z,5.58
2019-04-16T08:23:43.560Z,5.10
2019-04-16T08:26:49.243Z,5.55
2019-04-16T08:29:55.002Z,6.15
2019-04-16T08:33:00.582Z,6.25
2019-04-16T08:36:06.311Z,5.75
2019-04-16T08:39:14.374Z,3.87
2019-04-16T08:42:24.493Z,3.85
2019-04-16T08:45:28.323Z,5.78
2019-04-16T08:48:35.690Z,4.55
2019-04-16T08:51:42.472Z,3.85
2019-04-16T08:54:50.250Z,5.30
2019-04-16T08:57:55.555Z,4.90
2019-04-16T09:01:01.471Z,5.35
2019-04-16T09:04:07.265Z,3.92
2019-04-16T09:07:31.911Z,4.08
2019-04-16T09:10:39.288Z,4.17
2019-04-16T09:13:48.688Z,4.72
2019-04-16T09:17:10.154Z,4.10
2019-04-16T09:20:23.326Z,4.75
2019-04-16T09:23:30.295Z,4.30
2019-04-16T09:26:43.745Z,5.40
2019-04-16T09:30:18.099Z,5.30
2019-04-16T09:33:30.375Z,3.33
2019-04-16T09:37:04.900Z,3.62
2019-04-16T09:40:44.865Z,7.72
2019-04-16T09:43:57.029Z,4.53
2019-04-16T09:47:05.175Z,3.27
2019-04-16T09:50:11.552Z,5.45
2019-04-16T09:53:17.417Z,3.47
2019-04-16T09:56:32.675Z,3.22
2019-04-16T09:59:44.706Z,4.25
2019-04-16T10:02:50.094Z,5.55
2019-04-16T10:05:55.855Z,3.62
2019-04-16T10:09:01.691Z,3.83
2019-04-16T10:12:08.977Z,3.37
2019-04-16T10:15:16.088Z,3.87
2019-04-16T10:18:23.126Z,3.33
2019-04-16T10:21:29.307Z,3.60
2019-04-16T10:24:52.785Z,3.62
2019-04-16T10:28:01.978Z,3.37
2019-04-16T10:31:11.166Z,4.62
2019-04-16T10:34:16.911Z,3.35
2019-04-16T10:37:22.648Z,3.00
2019-04-16T10:40:40.116Z,2.87
2019-04-16T10:44:13.761Z,3.10
2019-04-16T10:47:56.591Z,2.12
2019-04-16T10:51:24.427Z,4.00
2019-04-16T10:54:38.633Z,2.70
2019-04-16T10:58:02.212Z,3.47
2019-04-16T11:01:34.678Z,3.52
2019-04-16T11:05:03.249Z,2.85
2019-04-16T11:08:11.460Z,2.02
2019-04-16T11:11:17.439Z,2.83
2019-04-16T11:14:24.083Z,3.27
2019-04-16T11:17:29.797Z,2.98
2019-04-16T11:20:37.091Z,2.98
2019-04-16T11:23:42.865Z,3.50
2019-04-16T11:26:48.558Z,2.65
2019-04-16T11:29:54.433Z,2.80
2019-04-16T11:33:00.603Z,3.37
2019-04-16T11:36:18.739Z,2.62
2019-04-16T11:39:14.886Z,2.75
2019-04-16T11:42:20.744Z,2.80
2019-04-16T11:45:26.551Z,3.35
2019-04-16T11:48:37.288Z,3.00
2019-04-16T11:51:39.827Z,2.35
2019-04-16T11:54:47.859Z,2.35
2019-04-16T11:57:53.930Z,2.40
2019-04-16T12:01:05.745Z,2.92
2019-04-16T12:04:42.476Z,3.30
2019-04-16T12:07:53.466Z,2.17
2019-04-16T12:11:24.109Z,2.17
2019-04-16T12:14:51.487Z,3.08
2019-04-16T12:18:14.667Z,2.20
2019-04-16T12:21:54.259Z,2.72
2019-04-16T12:25:17.464Z,3.35
2019-04-16T12:28:43.206Z,2.22
2019-04-16T12:32:11.466Z,3.20
2019-04-16T12:35:22.843Z,2.95
2019-04-16T12:38:41.577Z,2.15
2019-04-16T12:42:18.260Z,3.05
2019-04-16T12:45:45.797Z,2.75
2019-04-16T12:49:08.899Z,3.15
2019-04-16T12:52:30.020Z,1.98
2019-04-16T12:55:53.099Z,2.52
2019-04-16T12:59:06.521Z,2.12
2019-04-16T13:02:38.500Z,4.50
2019-04-16T13:06:02.489Z,3.12
2019-04-16T13:09:37.648Z,2.55
2019-04-16T13:13:17.421Z,2.40
2019-04-16T13:16:41.971Z,2.25
2019-04-16T13:20:05.299Z,2.83
2019-04-16T13:23:18.336Z,2.50
2019-04-16T13:26:46.443Z,2.83
2019-04-16T13:29:52.156Z,2.45
2019-04-16T13:32:57.909Z,2.00
2019-04-16T13:36:04.676Z,2.27
2019-04-16T13:39:31.113Z,2.70
2019-04-16T13:42:36.767Z,4.08
2019-04-16T13:45:42.532Z,2.55
2019-04-16T13:48:59.647Z,4.58
2019-04-16T13:52:04.499Z,2.98
2019-04-16T13:55:31.343Z,2.15
2019-04-16T13:58:42.709Z,2.52
2019-04-16T14:01:52.980Z,3.12
2019-04-16T14:05:03.134Z,2.30
2019-04-16T14:08:06.151Z,2.40
2019-04-16T14:11:11.786Z,2.10
2019-04-16T14:14:18.396Z,2.37
2019-04-16T14:17:26.576Z,2.00
2019-04-16T14:20:32.348Z,3.25
2019-04-16T14:23:38.063Z,2.98
2019-04-16T14:26:43.829Z,2.33
2019-04-16T14:29:50.336Z,3.42
2019-04-16T14:32:56.060Z,2.15
2019-04-16T14:36:02.029Z,2.22
2019-04-16T14:39:26.263Z,2.12
2019-04-16T14:42:31.976Z,3.47
2019-04-16T14:45:59.784Z,2.55
2019-04-16T14:49:05.439Z,2.00
2019-04-16T14:52:11.185Z,3.37
2019-04-16T14:55:58.753Z,2.10
2019-04-16T14:59:12.049Z,3.65
2019-04-16T15:02:45.962Z,3.58
2019-04-16T15:05:59.679Z,4.40
2019-04-16T15:09:16.205Z,4.50
2019-04-16T15:12:25.128Z,2.12
2019-04-16T15:15:36.743Z,2.35
2019-04-16T15:19:00.123Z,3.10
2019-04-16T15:22:37.764Z,3.75
2019-04-16T15:25:59.208Z,1.80
2019-04-16T15:29:10.082Z,2.37
2019-04-16T15:32:43.995Z,3.45
2019-04-16T15:35:58.119Z,2.00
2019-04-16T15:39:22.909Z,2.05
2019-04-16T15:42:41.471Z,2.60
2019-04-16T15:46:26.255Z,2.10
2019-04-16T15:49:33.135Z,2.35
2019-04-16T15:52:45.954Z,3.22
2019-04-16T15:56:14.736Z,2.20
2019-04-16T15:59:33.239Z,2.83
2019-04-16T16:02:56.396Z,2.33
2019-04-16T16:06:11.975Z,2.25
2019-04-16T16:09:41.095Z,2.47
2019-04-16T16:12:46.620Z,2.40
2019-04-16T16:15:52.382Z,2.65
2019-04-16T16:18:58.270Z,8.63
2019-04-16T16:22:03.867Z,3.83
2019-04-16T16:25:10.124Z,7.62
2019-04-16T16:28:15.808Z,5.40
2019-04-16T16:31:21.560Z,3.22
2019-04-16T16:34:27.731Z,3.87
2019-04-16T16:37:33.911Z,5.87
2019-04-16T16:40:41.072Z,5.25
2019-04-16T16:43:46.940Z,5.37
2019-04-16T16:47:26.572Z,3.37
2019-04-16T16:50:32.339Z,3.92
2019-04-16T16:53:48.249Z,3.35
2019-04-16T16:57:08.668Z,3.35
2019-04-16T17:00:28.596Z,4.00
2019-04-16T17:03:58.421Z,3.37
2019-04-16T17:07:04.232Z,3.33
2019-04-16T17:10:09.924Z,3.95
2019-04-16T17:13:18.571Z,3.22
2019-04-16T17:16:22.964Z,4.10
2019-04-16T17:19:28.587Z,3.15
2019-04-16T17:22:35.368Z,3.22
2019-04-16T17:25:41.084Z,4.03
2019-04-16T17:28:46.779Z,2.92
2019-04-16T17:31:52.527Z,2.00
2019-04-16T17:34:58.333Z,2.25
2019-04-16T17:38:05.443Z,2.42
2019-04-16T17:41:13.954Z,4.62
2019-04-16T17:44:38.452Z,3.27
2019-04-16T17:48:03.337Z,2.77
2019-04-16T17:51:29.686Z,3.25
2019-04-16T17:54:57.450Z,5.00
2019-04-16T17:58:09.846Z,1.98
2019-04-16T18:01:33.332Z,2.98
2019-04-16T18:04:50.464Z,2.75
2019-04-16T18:08:17.975Z,3.27
2019-04-16T18:11:32.995Z,3.27
2019-04-16T18:14:56.340Z,2.67
2019-04-16T18:18:24.474Z,2.83
2019-04-16T18:21:48.052Z,4.37
2019-04-16T18:25:06.426Z,27.13
2019-04-16T18:28:15.671Z,9.28
2019-04-16T18:31:39.152Z,9.48
2019-04-16T18:35:06.707Z,8.55
2019-04-16T18:38:24.896Z,10.95
2019-04-16T18:42:07.603Z,8.05
2019-04-16T18:45:34.900Z,4.17
2019-04-16T18:48:44.618Z,6.47
2019-04-16T18:51:50.419Z,6.15
2019-04-16T18:54:56.351Z,4.15
2019-04-16T18:58:01.988Z,5.87
2019-04-16T19:01:13.387Z,7.97
2019-04-16T19:04:19.072Z,4.95
2019-04-16T19:07:25.077Z,5.25
2019-04-16T19:10:31.720Z,3.92
2019-04-16T19:13:37.912Z,6.58
2019-04-16T19:16:45.342Z,5.58
2019-04-16T19:19:51.295Z,5.42
2019-04-16T19:22:56.991Z,8.73
2019-04-16T19:26:02.663Z,4.92
2019-04-16T19:29:13.364Z,6.20
2019-04-16T19:32:15.607Z,5.03
2019-04-16T19:35:22.680Z,5.65
2019-04-16T19:38:29.859Z,4.87
2019-04-16T19:41:35.620Z,6.65
2019-04-16T19:44:41.315Z,6.37
2019-04-16T19:47:48.741Z,6.00
2019-04-16T19:50:55.357Z,5.12
2019-04-16T19:54:03.631Z,7.67
2019-04-16T19:57:10.003Z,5.00
2019-04-16T20:00:22.915Z,5.80
2019-04-16T20:08:10.354Z,7.72
2019-04-16T20:11:21.391Z,7.55
2019-04-16T20:14:27.923Z,7.03
2019-04-16T20:17:33.951Z,6.22
2019-04-16T20:20:40.583Z,5.08
2019-04-16T20:23:48.419Z,5.35
2019-04-16T20:26:55.070Z,7.33
2019-04-16T20:30:01.731Z,5.55
2019-04-16T20:33:10.019Z,7.42
2019-04-16T20:36:22.451Z,6.58
2019-04-16T20:39:25.510Z,18.20
2019-04-16T20:42:33.439Z,15.48
2019-04-16T20:45:40.110Z,11.35
2019-04-16T20:48:46.307Z,10.80
2019-04-16T20:51:55.711Z,10.15
2019-04-16T20:55:00.866Z,10.48
2019-04-16T20:58:09.053Z,9.43
2019-04-16T21:01:32.177Z,8.48
2019-04-16T21:04:24.572Z,7.58
2019-04-16T21:07:31.193Z,9.28
2019-04-16T21:10:37.328Z,8.13
2019-04-16T21:13:43.504Z,8.45
2019-04-16T21:16:49.830Z,9.65
2019-04-16T21:19:56.079Z,8.15
2019-04-16T21:23:03.467Z,10.68
2019-04-16T21:26:11.808Z,8.28
2019-04-16T21:29:34.424Z,9.95
2019-04-16T21:32:55.866Z,8.53
2019-04-16T21:36:09.775Z,10.23
2019-04-16T21:39:20.988Z,8.78
2019-04-16T21:42:26.751Z,7.50
2019-04-16T21:45:32.388Z,15.53
2019-04-16T21:49:15.343Z,31.82
2019-04-16T21:52:23.271Z,21.27
2019-04-16T21:55:29.337Z,19.10
2019-04-16T21:58:35.051Z,24.27
2019-04-16T22:01:44.260Z,39.18
2019-04-16T22:05:16.732Z,14.18
2019-04-16T22:08:20.274Z,19.50
2019-04-16T22:11:27.723Z,23.05
2019-04-16T22:14:33.420Z,15.68
2019-04-16T22:17:39.204Z,16.97
2019-04-16T22:20:44.800Z,8.53
2019-04-16T22:23:52.503Z,13.35
2019-04-16T22:26:58.251Z,14.73
2019-04-16T22:30:04.305Z,10.48
2019-04-16T22:33:10.108Z,13.93
2019-04-16T22:36:15.762Z,8.95
2019-04-16T22:39:33.479Z,11.93
2019-04-16T22:42:57.292Z,10.60
2019-04-16T22:46:22.580Z,8.90
2019-04-16T22:49:28.316Z,11.43
2019-04-16T22:52:33.955Z,9.28
2019-04-16T22:55:42.642Z,9.63
2019-04-16T22:58:47.939Z,10.30
2019-04-16T23:01:53.921Z,12.25
2019-04-16T23:05:00.136Z,10.85
2019-04-16T23:08:08.764Z,10.08
2019-04-16T23:11:13.312Z,10.20
2019-04-16T23:14:21.819Z,10.20
2019-04-16T23:17:27.576Z,9.93
2019-04-16T23:20:37.030Z,8.45
2019-04-16T23:23:41.527Z,9.20
2019-04-16T23:26:47.299Z,11.78
2019-04-16T23:29:52.927Z,9.68
2019-04-16T23:33:00.112Z,9.50
2019-04-16T23:36:05.934Z,8.93
2019-04-16T23:39:11.560Z,10.65
2019-04-16T23:42:19.171Z,9.90
2019-04-16T23:45:36.099Z,8.23
2019-04-16T23:49:16.493Z,9.38
2019-04-16T23:52:41.863Z,8.75
2019-04-16T23:56:21.723Z,10.35
2019-04-16T23:59:49.112Z,8.63
